모두
Port Pirie Airport (Port Pirie, South Australia) PPI 기상
There is no TAF data available at PPI. Showing TAF data for YWHA (30 mi 서).
WYA 터미널 지역 예측(PPI에 대한 데이터 없음)
| Here is the undecoded forecast: 2026/08/31 17:04 YWHA 311704Z 3118/0106 36010KT CAVOK FM010000 34015G25KT CAVOK RMK FM311800 MOD TURB BLW 3000FT TL312300 FM312300 SEV TURB BLW 3000FT TL010200 FM010200 MOD TURB BLW 3000FT TL010500 T 14 12 19 24 Q 1020 1019 1019 1017 |
There is no METAR data available at PPI. Showing METAR data for YWHA (30 mi 서).
최근 WYA METAR 이력(PPI에 대한 데이터 없음)
| Date | Time (ACST) | Flight Rules | Wind Dir. | Speed | Type | Height AGL (ft) | Visibility | Temp (°C) | Temp (°F) | Dew Point (°C) | Dew Point (°F) | Rel. Humid. | Pressure | Density Altitude | Remarks |
|---|---|---|---|---|---|---|---|---|---|---|---|---|---|---|---|
| 01-9월 | 04:30 | VFR | 350° | 9 kt | 10000 meters | 13° | 55° | 7° | 44° | 67% | 1019 mb | -370 ft | |||
| 01-9월 | 03:30 | VFR | 310° | 7 kt | 10000 meters | 10° | 50° | 6° | 42° | 76% | 1020 mb | -760 ft | |||
| 01-9월 | 02:30 | VFR | 10° | 13 kt | 10000 meters | 17° | 62° | 6° | 42° | 48% | 1020 mb | 80 ft | |||
| 01-9월 | 01:30 | VFR | 360° | 8 kt | 10000 meters | 12° | 53° | 6° | 42° | 67% | 1021 mb | -549 ft | |||
| 01-9월 | 00:30 | VFR | 310° | 7 kt | 10000 meters | 10° | 50° | 6° | 42° | 76% | 1022 mb | -819 ft | |||
| 31-8월 | 23:30 | VFR | 320° | 7 kt | 10000 meters | 10° | 50° | 5° | 41° | 71% | 1023 mb | -848 ft | |||
| 31-8월 | 22:30 | VFR | 360° | 5 kt | 10000 meters | 13° | 55° | 5° | 41° | 58% | 1023 mb | -488 ft | |||
| 31-8월 | 21:30 | VFR | 20° | 5 kt | 10000 meters | 14° | 57° | 5° | 41° | 55% | 1024 mb | -398 ft | |||
| 31-8월 | 20:30 | VFR | 30° | 6 kt | 10000 meters | 17° | 62° | 5° | 41° | 45% | 1024 mb | -38 ft | |||
| 31-8월 | 19:30 | VFR | 50° | 5 kt | 10000 meters | 16° | 60° | 8° | 46° | 59% | 1024 mb | -158 ft | |||
| 31-8월 | 18:30 | VFR | 90° | 6 kt | 10000 meters | 17° | 62° | 10° | 50° | 63% | 1024 mb | -38 ft | |||
| 31-8월 | 17:30 | VFR | 90° | 5 kt | 10000 meters | 20° | 68° | 8° | 46° | 46% | 1024 mb | 322 ft | |||
| 31-8월 | 16:30 | VFR | 100° | 9 kt | 10000 meters | 22° | 71° | 8° | 46° | 41% | 1024 mb | 562 ft | |||
| 31-8월 | 15:30 | VFR | 90° | 11 kt | 10000 meters | 22° | 71° | 6° | 42° | 35% | 1024 mb | 562 ft | |||
| 31-8월 | 14:30 | VFR | 100° | 11 kt | 10000 meters | 21° | 69° | 8° | 46° | 43% | 1025 mb | 413 ft | |||
| 31-8월 | 13:30 | VFR | 90° | 11 kt | 10000 meters | 21° | 69° | 6° | 42° | 38% | 1026 mb | 383 ft | |||
| 31-8월 | 12:30 | VFR | 110° | 11 kt | 10000 meters | 20° | 68° | 8° | 46° | 46% | 1027 mb | 234 ft | |||
| 31-8월 | 11:30 | VFR | 10° | 9 kt | 10000 meters | 21° | 69° | 5° | 41° | 35% | 1029 mb | 295 ft | |||
| 31-8월 | 10:30 | VFR | 360° | 5 kt | 10000 meters | 19° | 66° | 8° | 46° | 49% | 1029 mb | 55 ft | |||
| 31-8월 | 09:30 | VFR | Calm | 10000 meters | 16° | 60° | 12° | 53° | 77% | 1030 mb | -335 ft | ||||
| 31-8월 | 08:30 | VFR | 310° | 2 kt | 10000 meters | 12° | 53° | 11° | 51° | 94% | 1030 mb | -815 ft | |||
| 31-8월 | 07:35 | VFR | 310° | 4 kt | Scattered |
100 |
10000 meters |
7° | 44° | 7° | 44° | 100% | 1030 mb | -1,415 ft | |
| 31-8월 | 06:30 | BCAT1 | 310° | 4 kt | Overcast |
100 |
1600 meters |
5° | 41° | 5° | 41° | 100% | 1029 mb | -1,625 ft | Mist |
| 31-8월 | 05:35 | BCAT1 | 240° | 4 kt | Broken |
100 |
900 meters | 6° | 42° | 5° | 41° | 93% | 1029 mb | -1,505 ft | Fog |
로그인
| 귀하의 브라우저는 지원되지 않습니다.. 브라우저를 업그레이드하세요 |
